sensor_id;sensor_type;location;lat;lon;timestamp;P1;durP1;ratioP1;P2;durP2;ratioP2
10659;SDS011;5378;53.206;13.316;2024-02-15T00:02:36;11.60;;;6.60;;
10659;SDS011;5378;53.206;13.316;2024-02-15T00:05:42;13.50;;;7.07;;
10659;SDS011;5378;53.206;13.316;2024-02-15T00:08:31;10.90;;;7.30;;
10659;SDS011;5378;53.206;13.316;2024-02-15T00:11:19;12.67;;;6.50;;
10659;SDS011;5378;53.206;13.316;2024-02-15T00:14:08;11.80;;;8.33;;
10659;SDS011;5378;53.206;13.316;2024-02-15T00:16:55;12.73;;;7.67;;
10659;SDS011;5378;53.206;13.316;2024-02-15T00:19:43;11.47;;;7.33;;
10659;SDS011;5378;53.206;13.316;2024-02-15T00:22:30;13.17;;;7.37;;
10659;SDS011;5378;53.206;13.316;2024-02-15T00:25:19;15.57;;;7.77;;
10659;SDS011;5378;53.206;13.316;2024-02-15T00:28:06;12.30;;;7.67;;
10659;SDS011;5378;53.206;13.316;2024-02-15T00:30:55;12.67;;;7.53;;
10659;SDS011;5378;53.206;13.316;2024-02-15T00:33:42;19.50;;;8.13;;
10659;SDS011;5378;53.206;13.316;2024-02-15T00:36:30;13.87;;;7.57;;
10659;SDS011;5378;53.206;13.316;2024-02-15T00:39:17;16.03;;;8.87;;
10659;SDS011;5378;53.206;13.316;2024-02-15T00:42:05;16.13;;;8.47;;
10659;SDS011;5378;53.206;13.316;2024-02-15T00:44:54;15.70;;;8.97;;
10659;SDS011;5378;53.206;13.316;2024-02-15T00:47:42;16.77;;;8.30;;
10659;SDS011;5378;53.206;13.316;2024-02-15T00:50:30;11.27;;;7.37;;
10659;SDS011;5378;53.206;13.316;2024-02-15T00:53:17;18.13;;;9.10;;
10659;SDS011;5378;53.206;13.316;2024-02-15T00:56:04;14.57;;;9.40;;
10659;SDS011;5378;53.206;13.316;2024-02-15T00:58:52;20.57;;;8.13;;
10659;SDS011;5378;53.206;13.316;2024-02-15T01:01:39;15.93;;;7.73;;
10659;SDS011;5378;53.206;13.316;2024-02-15T01:04:28;13.80;;;8.33;;
10659;SDS011;5378;53.206;13.316;2024-02-15T01:07:16;17.20;;;8.90;;
10659;SDS011;5378;53.206;13.316;2024-02-15T01:10:03;13.97;;;8.13;;
10659;SDS011;5378;53.206;13.316;2024-02-15T01:12:51;16.60;;;8.37;;
10659;SDS011;5378;53.206;13.316;2024-02-15T01:15:39;17.93;;;8.63;;
10659;SDS011;5378;53.206;13.316;2024-02-15T01:18:26;14.00;;;8.47;;
10659;SDS011;5378;53.206;13.316;2024-02-15T01:21:16;16.83;;;9.23;;
10659;SDS011;5378;53.206;13.316;2024-02-15T01:24:04;18.03;;;8.20;;
10659;SDS011;5378;53.206;13.316;2024-02-15T01:26:52;16.77;;;8.97;;
10659;SDS011;5378;53.206;13.316;2024-02-15T01:29:40;16.93;;;8.40;;
10659;SDS011;5378;53.206;13.316;2024-02-15T01:32:28;15.40;;;9.47;;
10659;SDS011;5378;53.206;13.316;2024-02-15T01:35:15;12.33;;;7.70;;
10659;SDS011;5378;53.206;13.316;2024-02-15T01:38:03;15.43;;;8.80;;
10659;SDS011;5378;53.206;13.316;2024-02-15T01:40:51;16.70;;;8.77;;
10659;SDS011;5378;53.206;13.316;2024-02-15T01:43:39;17.60;;;8.30;;
10659;SDS011;5378;53.206;13.316;2024-02-15T01:46:29;12.70;;;7.00;;
10659;SDS011;5378;53.206;13.316;2024-02-15T01:49:17;11.80;;;6.53;;
10659;SDS011;5378;53.206;13.316;2024-02-15T01:52:04;14.17;;;7.70;;
10659;SDS011;5378;53.206;13.316;2024-02-15T01:54:55;14.73;;;7.83;;
10659;SDS011;5378;53.206;13.316;2024-02-15T01:57:44;15.53;;;8.63;;
10659;SDS011;5378;53.206;13.316;2024-02-15T02:00:32;17.13;;;8.10;;
10659;SDS011;5378;53.206;13.316;2024-02-15T02:03:19;12.43;;;6.93;;
10659;SDS011;5378;53.206;13.316;2024-02-15T02:06:08;13.83;;;7.60;;
10659;SDS011;5378;53.206;13.316;2024-02-15T02:08:55;15.40;;;8.70;;
10659;SDS011;5378;53.206;13.316;2024-02-15T02:11:45;12.70;;;7.47;;
10659;SDS011;5378;53.206;13.316;2024-02-15T02:14:33;21.20;;;8.20;;
10659;SDS011;5378;53.206;13.316;2024-02-15T02:17:20;15.17;;;8.67;;
10659;SDS011;5378;53.206;13.316;2024-02-15T02:20:08;14.13;;;8.23;;
10659;SDS011;5378;53.206;13.316;2024-02-15T02:23:00;16.60;;;8.07;;
10659;SDS011;5378;53.206;13.316;2024-02-15T02:25:55;17.73;;;9.83;;
10659;SDS011;5378;53.206;13.316;2024-02-15T02:28:43;14.93;;;8.93;;
10659;SDS011;5378;53.206;13.316;2024-02-15T02:31:32;18.47;;;9.27;;
10659;SDS011;5378;53.206;13.316;2024-02-15T02:34:20;19.53;;;9.23;;
10659;SDS011;5378;53.206;13.316;2024-02-15T02:37:07;18.40;;;9.33;;
10659;SDS011;5378;53.206;13.316;2024-02-15T02:39:54;19.30;;;9.87;;
10659;SDS011;5378;53.206;13.316;2024-02-15T02:42:51;18.30;;;7.57;;
10659;SDS011;5378;53.206;13.316;2024-02-15T02:45:39;18.37;;;7.50;;
10659;SDS011;5378;53.206;13.316;2024-02-15T02:48:27;14.80;;;8.87;;
10659;SDS011;5378;53.206;13.316;2024-02-15T02:51:14;15.50;;;8.60;;
10659;SDS011;5378;53.206;13.316;2024-02-15T02:54:02;14.13;;;8.50;;
10659;SDS011;5378;53.206;13.316;2024-02-15T02:56:52;17.03;;;8.57;;
10659;SDS011;5378;53.206;13.316;2024-02-15T02:59:40;19.00;;;8.90;;
10659;SDS011;5378;53.206;13.316;2024-02-15T03:02:28;17.23;;;8.87;;
10659;SDS011;5378;53.206;13.316;2024-02-15T03:05:15;14.97;;;8.30;;
10659;SDS011;5378;53.206;13.316;2024-02-15T03:08:02;18.90;;;9.37;;
10659;SDS011;5378;53.206;13.316;2024-02-15T03:10:50;15.60;;;8.00;;
10659;SDS011;5378;53.206;13.316;2024-02-15T03:13:37;16.80;;;8.67;;
10659;SDS011;5378;53.206;13.316;2024-02-15T03:16:25;13.37;;;8.77;;
10659;SDS011;5378;53.206;13.316;2024-02-15T03:19:13;19.63;;;9.10;;
10659;SDS011;5378;53.206;13.316;2024-02-15T03:22:00;18.90;;;9.40;;
10659;SDS011;5378;53.206;13.316;2024-02-15T03:24:47;20.63;;;9.80;;
10659;SDS011;5378;53.206;13.316;2024-02-15T03:27:34;15.00;;;8.00;;
10659;SDS011;5378;53.206;13.316;2024-02-15T03:30:23;18.47;;;10.17;;
10659;SDS011;5378;53.206;13.316;2024-02-15T03:33:12;15.47;;;8.63;;
10659;SDS011;5378;53.206;13.316;2024-02-15T03:35:59;18.97;;;9.10;;
10659;SDS011;5378;53.206;13.316;2024-02-15T03:38:47;19.37;;;9.13;;
10659;SDS011;5378;53.206;13.316;2024-02-15T03:41:34;23.67;;;9.50;;
10659;SDS011;5378;53.206;13.316;2024-02-15T03:44:22;18.07;;;7.97;;
10659;SDS011;5378;53.206;13.316;2024-02-15T03:47:11;16.47;;;8.90;;
10659;SDS011;5378;53.206;13.316;2024-02-15T03:50:00;17.10;;;9.07;;
10659;SDS011;5378;53.206;13.316;2024-02-15T03:52:49;22.43;;;9.33;;
10659;SDS011;5378;53.206;13.316;2024-02-15T03:55:36;17.17;;;8.90;;
10659;SDS011;5378;53.206;13.316;2024-02-15T03:58:24;13.37;;;7.77;;
10659;SDS011;5378;53.206;13.316;2024-02-15T04:01:11;14.43;;;7.80;;
10659;SDS011;5378;53.206;13.316;2024-02-15T04:04:00;16.77;;;8.17;;
10659;SDS011;5378;53.206;13.316;2024-02-15T04:06:50;17.03;;;9.17;;
10659;SDS011;5378;53.206;13.316;2024-02-15T04:09:38;15.47;;;7.70;;
10659;SDS011;5378;53.206;13.316;2024-02-15T04:12:25;12.50;;;6.40;;
10659;SDS011;5378;53.206;13.316;2024-02-15T04:15:12;12.73;;;7.13;;
10659;SDS011;5378;53.206;13.316;2024-02-15T04:18:02;15.43;;;7.73;;
10659;SDS011;5378;53.206;13.316;2024-02-15T04:20:50;12.53;;;7.00;;
10659;SDS011;5378;53.206;13.316;2024-02-15T04:23:38;14.30;;;6.30;;
10659;SDS011;5378;53.206;13.316;2024-02-15T04:26:26;13.23;;;7.27;;
10659;SDS011;5378;53.206;13.316;2024-02-15T04:29:15;12.80;;;6.67;;
10659;SDS011;5378;53.206;13.316;2024-02-15T04:32:04;10.93;;;6.63;;
10659;SDS011;5378;53.206;13.316;2024-02-15T04:34:54;14.13;;;6.60;;
10659;SDS011;5378;53.206;13.316;2024-02-15T04:37:41;13.73;;;6.33;;
10659;SDS011;5378;53.206;13.316;2024-02-15T04:40:30;12.33;;;6.50;;
10659;SDS011;5378;53.206;13.316;2024-02-15T04:43:17;15.43;;;7.87;;
10659;SDS011;5378;53.206;13.316;2024-02-15T04:46:05;11.53;;;6.90;;
10659;SDS011;5378;53.206;13.316;2024-02-15T04:48:53;11.80;;;6.50;;
10659;SDS011;5378;53.206;13.316;2024-02-15T04:51:41;14.80;;;7.50;;
10659;SDS011;5378;53.206;13.316;2024-02-15T04:54:29;15.00;;;7.20;;
10659;SDS011;5378;53.206;13.316;2024-02-15T04:57:17;14.37;;;7.40;;
10659;SDS011;5378;53.206;13.316;2024-02-15T05:00:05;13.50;;;5.73;;
10659;SDS011;5378;53.206;13.316;2024-02-15T05:02:56;9.80;;;6.00;;
10659;SDS011;5378;53.206;13.316;2024-02-15T05:05:44;10.83;;;6.73;;
10659;SDS011;5378;53.206;13.316;2024-02-15T05:08:31;14.80;;;6.50;;
10659;SDS011;5378;53.206;13.316;2024-02-15T05:11:20;11.13;;;6.00;;
10659;SDS011;5378;53.206;13.316;2024-02-15T05:14:09;13.67;;;6.20;;
10659;SDS011;5378;53.206;13.316;2024-02-15T05:16:56;11.07;;;5.63;;
10659;SDS011;5378;53.206;13.316;2024-02-15T05:19:44;18.83;;;6.90;;
10659;SDS011;5378;53.206;13.316;2024-02-15T05:22:31;12.07;;;6.10;;
10659;SDS011;5378;53.206;13.316;2024-02-15T05:25:19;16.53;;;6.03;;
10659;SDS011;5378;53.206;13.316;2024-02-15T05:28:08;11.63;;;6.13;;
10659;SDS011;5378;53.206;13.316;2024-02-15T05:31:09;12.57;;;6.13;;
10659;SDS011;5378;53.206;13.316;2024-02-15T05:33:57;17.13;;;8.03;;
10659;SDS011;5378;53.206;13.316;2024-02-15T05:36:44;19.40;;;7.60;;
10659;SDS011;5378;53.206;13.316;2024-02-15T05:39:33;13.93;;;6.63;;
10659;SDS011;5378;53.206;13.316;2024-02-15T05:42:20;15.17;;;7.70;;
10659;SDS011;5378;53.206;13.316;2024-02-15T05:45:29;12.87;;;6.60;;
10659;SDS011;5378;53.206;13.316;2024-02-15T05:48:19;15.93;;;7.30;;
10659;SDS011;5378;53.206;13.316;2024-02-15T05:51:07;16.70;;;7.67;;
10659;SDS011;5378;53.206;13.316;2024-02-15T05:53:55;18.70;;;8.03;;
10659;SDS011;5378;53.206;13.316;2024-02-15T05:56:44;16.23;;;7.20;;
10659;SDS011;5378;53.206;13.316;2024-02-15T05:59:37;14.77;;;6.30;;
10659;SDS011;5378;53.206;13.316;2024-02-15T06:02:26;17.13;;;9.13;;
10659;SDS011;5378;53.206;13.316;2024-02-15T06:05:14;18.50;;;7.43;;
10659;SDS011;5378;53.206;13.316;2024-02-15T06:08:02;16.77;;;7.73;;
10659;SDS011;5378;53.206;13.316;2024-02-15T06:10:50;21.67;;;10.30;;
10659;SDS011;5378;53.206;13.316;2024-02-15T06:13:38;17.80;;;8.93;;
10659;SDS011;5378;53.206;13.316;2024-02-15T06:16:25;18.40;;;8.40;;
10659;SDS011;5378;53.206;13.316;2024-02-15T06:19:13;24.73;;;10.40;;
10659;SDS011;5378;53.206;13.316;2024-02-15T06:22:02;20.37;;;9.20;;
10659;SDS011;5378;53.206;13.316;2024-02-15T06:24:50;21.80;;;9.73;;
10659;SDS011;5378;53.206;13.316;2024-02-15T06:27:37;22.20;;;10.77;;
10659;SDS011;5378;53.206;13.316;2024-02-15T06:30:26;19.03;;;8.53;;
10659;SDS011;5378;53.206;13.316;2024-02-15T06:33:31;27.03;;;9.37;;
10659;SDS011;5378;53.206;13.316;2024-02-15T06:36:39;26.77;;;8.30;;
10659;SDS011;5378;53.206;13.316;2024-02-15T06:39:45;21.33;;;9.70;;
10659;SDS011;5378;53.206;13.316;2024-02-15T06:42:32;27.17;;;9.73;;
10659;SDS011;5378;53.206;13.316;2024-02-15T06:45:19;21.10;;;9.27;;
10659;SDS011;5378;53.206;13.316;2024-02-15T06:48:07;19.93;;;9.43;;
10659;SDS011;5378;53.206;13.316;2024-02-15T06:50:54;20.93;;;8.80;;
10659;SDS011;5378;53.206;13.316;2024-02-15T06:53:41;15.30;;;7.23;;
10659;SDS011;5378;53.206;13.316;2024-02-15T06:56:29;19.53;;;9.40;;
10659;SDS011;5378;53.206;13.316;2024-02-15T06:59:17;21.73;;;10.10;;
10659;SDS011;5378;53.206;13.316;2024-02-15T07:02:05;18.60;;;8.50;;
10659;SDS011;5378;53.206;13.316;2024-02-15T07:04:53;17.30;;;8.43;;
10659;SDS011;5378;53.206;13.316;2024-02-15T07:07:40;22.60;;;9.80;;
10659;SDS011;5378;53.206;13.316;2024-02-15T07:10:28;18.93;;;8.27;;
10659;SDS011;5378;53.206;13.316;2024-02-15T07:13:18;19.50;;;9.30;;
10659;SDS011;5378;53.206;13.316;2024-02-15T07:16:06;21.43;;;8.63;;
10659;SDS011;5378;53.206;13.316;2024-02-15T07:18:54;18.50;;;9.10;;
10659;SDS011;5378;53.206;13.316;2024-02-15T07:21:41;27.63;;;9.80;;
10659;SDS011;5378;53.206;13.316;2024-02-15T07:24:29;18.80;;;8.00;;
10659;SDS011;5378;53.206;13.316;2024-02-15T07:27:16;19.50;;;8.63;;
10659;SDS011;5378;53.206;13.316;2024-02-15T07:30:06;15.23;;;7.60;;
10659;SDS011;5378;53.206;13.316;2024-02-15T07:32:54;21.47;;;8.10;;
10659;SDS011;5378;53.206;13.316;2024-02-15T07:35:41;23.10;;;9.83;;
10659;SDS011;5378;53.206;13.316;2024-02-15T07:38:29;21.13;;;9.33;;
10659;SDS011;5378;53.206;13.316;2024-02-15T07:41:20;24.00;;;10.50;;
10659;SDS011;5378;53.206;13.316;2024-02-15T07:44:08;19.10;;;8.77;;
10659;SDS011;5378;53.206;13.316;2024-02-15T07:46:56;22.90;;;9.60;;
10659;SDS011;5378;53.206;13.316;2024-02-15T07:49:45;19.77;;;8.50;;
10659;SDS011;5378;53.206;13.316;2024-02-15T07:52:32;25.80;;;11.30;;
10659;SDS011;5378;53.206;13.316;2024-02-15T07:55:19;22.37;;;10.63;;
10659;SDS011;5378;53.206;13.316;2024-02-15T07:58:06;20.97;;;9.50;;
10659;SDS011;5378;53.206;13.316;2024-02-15T08:00:53;22.37;;;10.60;;
10659;SDS011;5378;53.206;13.316;2024-02-15T08:03:43;24.83;;;10.60;;
10659;SDS011;5378;53.206;13.316;2024-02-15T08:06:31;21.80;;;9.30;;
10659;SDS011;5378;53.206;13.316;2024-02-15T08:09:19;26.97;;;10.83;;
10659;SDS011;5378;53.206;13.316;2024-02-15T08:12:09;29.27;;;10.33;;
10659;SDS011;5378;53.206;13.316;2024-02-15T08:14:56;26.93;;;10.57;;
10659;SDS011;5378;53.206;13.316;2024-02-15T08:17:44;26.97;;;11.10;;
10659;SDS011;5378;53.206;13.316;2024-02-15T08:20:34;22.90;;;10.50;;
10659;SDS011;5378;53.206;13.316;2024-02-15T08:23:21;23.53;;;10.53;;
10659;SDS011;5378;53.206;13.316;2024-02-15T08:26:09;25.90;;;10.93;;
10659;SDS011;5378;53.206;13.316;2024-02-15T08:28:57;31.00;;;11.93;;
10659;SDS011;5378;53.206;13.316;2024-02-15T08:31:44;27.90;;;10.60;;
10659;SDS011;5378;53.206;13.316;2024-02-15T08:34:31;24.30;;;10.40;;
10659;SDS011;5378;53.206;13.316;2024-02-15T08:37:20;27.40;;;9.57;;
10659;SDS011;5378;53.206;13.316;2024-02-15T08:40:08;19.67;;;8.83;;
10659;SDS011;5378;53.206;13.316;2024-02-15T08:42:57;23.23;;;10.63;;
10659;SDS011;5378;53.206;13.316;2024-02-15T08:45:44;19.50;;;9.90;;
10659;SDS011;5378;53.206;13.316;2024-02-15T08:48:31;21.43;;;9.40;;
10659;SDS011;5378;53.206;13.316;2024-02-15T08:51:18;21.03;;;8.30;;
10659;SDS011;5378;53.206;13.316;2024-02-15T08:54:09;23.80;;;10.33;;
10659;SDS011;5378;53.206;13.316;2024-02-15T08:56:56;22.43;;;10.10;;
10659;SDS011;5378;53.206;13.316;2024-02-15T08:59:43;16.63;;;8.50;;
10659;SDS011;5378;53.206;13.316;2024-02-15T09:02:30;24.13;;;7.73;;
10659;SDS011;5378;53.206;13.316;2024-02-15T09:05:18;19.10;;;7.67;;
10659;SDS011;5378;53.206;13.316;2024-02-15T09:08:07;16.27;;;8.33;;
10659;SDS011;5378;53.206;13.316;2024-02-15T09:10:55;17.00;;;7.97;;
10659;SDS011;5378;53.206;13.316;2024-02-15T09:13:43;14.67;;;8.03;;
10659;SDS011;5378;53.206;13.316;2024-02-15T09:16:30;19.00;;;8.50;;
10659;SDS011;5378;53.206;13.316;2024-02-15T09:19:19;15.53;;;7.40;;
10659;SDS011;5378;53.206;13.316;2024-02-15T09:22:06;19.67;;;9.33;;
10659;SDS011;5378;53.206;13.316;2024-02-15T09:24:53;15.77;;;7.10;;
10659;SDS011;5378;53.206;13.316;2024-02-15T09:27:42;17.63;;;7.17;;
10659;SDS011;5378;53.206;13.316;2024-02-15T09:30:30;21.20;;;8.67;;
10659;SDS011;5378;53.206;13.316;2024-02-15T09:33:21;17.73;;;7.90;;
10659;SDS011;5378;53.206;13.316;2024-02-15T09:36:08;19.70;;;8.53;;
10659;SDS011;5378;53.206;13.316;2024-02-15T09:38:55;18.00;;;7.93;;
10659;SDS011;5378;53.206;13.316;2024-02-15T09:41:44;17.50;;;8.57;;
10659;SDS011;5378;53.206;13.316;2024-02-15T09:44:33;18.20;;;8.63;;
10659;SDS011;5378;53.206;13.316;2024-02-15T09:47:20;18.53;;;8.73;;
10659;SDS011;5378;53.206;13.316;2024-02-15T09:50:09;16.07;;;7.90;;
10659;SDS011;5378;53.206;13.316;2024-02-15T09:52:59;20.93;;;9.10;;
10659;SDS011;5378;53.206;13.316;2024-02-15T09:55:48;17.20;;;8.30;;
10659;SDS011;5378;53.206;13.316;2024-02-15T09:58:35;16.40;;;8.07;;
10659;SDS011;5378;53.206;13.316;2024-02-15T10:01:25;20.97;;;8.77;;
10659;SDS011;5378;53.206;13.316;2024-02-15T10:04:17;19.40;;;8.23;;
10659;SDS011;5378;53.206;13.316;2024-02-15T10:07:04;14.90;;;7.90;;
10659;SDS011;5378;53.206;13.316;2024-02-15T10:09:54;20.03;;;8.27;;
10659;SDS011;5378;53.206;13.316;2024-02-15T10:12:43;16.47;;;8.47;;
10659;SDS011;5378;53.206;13.316;2024-02-15T10:15:30;14.90;;;7.10;;
10659;SDS011;5378;53.206;13.316;2024-02-15T10:18:20;18.20;;;8.00;;
10659;SDS011;5378;53.206;13.316;2024-02-15T10:21:07;14.70;;;7.97;;
10659;SDS011;5378;53.206;13.316;2024-02-15T10:24:04;22.90;;;9.63;;
10659;SDS011;5378;53.206;13.316;2024-02-15T10:26:51;15.00;;;7.40;;
10659;SDS011;5378;53.206;13.316;2024-02-15T10:29:49;20.53;;;8.17;;
10659;SDS011;5378;53.206;13.316;2024-02-15T10:32:35;16.30;;;8.57;;
10659;SDS011;5378;53.206;13.316;2024-02-15T10:35:24;15.60;;;8.00;;
10659;SDS011;5378;53.206;13.316;2024-02-15T10:38:11;16.90;;;7.80;;
10659;SDS011;5378;53.206;13.316;2024-02-15T10:41:02;16.80;;;8.90;;
10659;SDS011;5378;53.206;13.316;2024-02-15T10:43:51;16.17;;;8.00;;
10659;SDS011;5378;53.206;13.316;2024-02-15T10:46:40;17.60;;;7.53;;
10659;SDS011;5378;53.206;13.316;2024-02-15T10:49:28;24.03;;;10.07;;
10659;SDS011;5378;53.206;13.316;2024-02-15T10:52:16;16.77;;;8.40;;
10659;SDS011;5378;53.206;13.316;2024-02-15T10:55:06;17.07;;;8.73;;
10659;SDS011;5378;53.206;13.316;2024-02-15T10:58:00;16.40;;;7.50;;
10659;SDS011;5378;53.206;13.316;2024-02-15T11:00:50;17.50;;;8.27;;
10659;SDS011;5378;53.206;13.316;2024-02-15T11:03:40;15.97;;;7.90;;
10659;SDS011;5378;53.206;13.316;2024-02-15T11:06:35;18.40;;;9.00;;
10659;SDS011;5378;53.206;13.316;2024-02-15T11:09:28;13.63;;;7.40;;
10659;SDS011;5378;53.206;13.316;2024-02-15T11:12:16;15.77;;;8.40;;
10659;SDS011;5378;53.206;13.316;2024-02-15T11:15:03;12.43;;;7.60;;
10659;SDS011;5378;53.206;13.316;2024-02-15T11:17:52;19.37;;;8.60;;
10659;SDS011;5378;53.206;13.316;2024-02-15T11:20:46;15.90;;;7.50;;
10659;SDS011;5378;53.206;13.316;2024-02-15T11:23:38;14.63;;;7.00;;
10659;SDS011;5378;53.206;13.316;2024-02-15T11:26:45;15.93;;;8.33;;
10659;SDS011;5378;53.206;13.316;2024-02-15T11:29:48;14.97;;;6.97;;
10659;SDS011;5378;53.206;13.316;2024-02-15T11:32:37;18.20;;;6.93;;
10659;SDS011;5378;53.206;13.316;2024-02-15T11:35:26;14.70;;;6.87;;
10659;SDS011;5378;53.206;13.316;2024-02-15T11:38:27;13.00;;;5.97;;
10659;SDS011;5378;53.206;13.316;2024-02-15T11:41:17;16.50;;;7.50;;
10659;SDS011;5378;53.206;13.316;2024-02-15T11:44:09;13.83;;;6.90;;
10659;SDS011;5378;53.206;13.316;2024-02-15T11:47:03;13.30;;;7.50;;
10659;SDS011;5378;53.206;13.316;2024-02-15T11:49:52;14.70;;;7.03;;
10659;SDS011;5378;53.206;13.316;2024-02-15T11:52:40;12.70;;;6.50;;
10659;SDS011;5378;53.206;13.316;2024-02-15T11:55:28;13.50;;;7.40;;
10659;SDS011;5378;53.206;13.316;2024-02-15T11:58:16;13.20;;;6.30;;
10659;SDS011;5378;53.206;13.316;2024-02-15T12:01:08;16.30;;;7.70;;
10659;SDS011;5378;53.206;13.316;2024-02-15T12:04:13;13.23;;;6.50;;
10659;SDS011;5378;53.206;13.316;2024-02-15T12:07:18;11.40;;;6.10;;
10659;SDS011;5378;53.206;13.316;2024-02-15T12:10:22;15.83;;;7.83;;
10659;SDS011;5378;53.206;13.316;2024-02-15T12:13:27;15.73;;;7.57;;
10659;SDS011;5378;53.206;13.316;2024-02-15T12:16:33;12.00;;;7.13;;
10659;SDS011;5378;53.206;13.316;2024-02-15T12:19:39;12.07;;;6.97;;
10659;SDS011;5378;53.206;13.316;2024-02-15T12:22:26;18.73;;;7.17;;
10659;SDS011;5378;53.206;13.316;2024-02-15T12:25:16;9.10;;;6.03;;
10659;SDS011;5378;53.206;13.316;2024-02-15T12:28:06;9.30;;;5.77;;
10659;SDS011;5378;53.206;13.316;2024-02-15T12:30:54;8.47;;;5.70;;
10659;SDS011;5378;53.206;13.316;2024-02-15T12:33:44;8.20;;;5.10;;
10659;SDS011;5378;53.206;13.316;2024-02-15T12:36:32;8.10;;;5.30;;
10659;SDS011;5378;53.206;13.316;2024-02-15T12:39:24;7.93;;;5.77;;
10659;SDS011;5378;53.206;13.316;2024-02-15T12:42:13;7.10;;;4.33;;
10659;SDS011;5378;53.206;13.316;2024-02-15T12:45:00;8.60;;;4.80;;
10659;SDS011;5378;53.206;13.316;2024-02-15T12:47:50;7.50;;;5.43;;
10659;SDS011;5378;53.206;13.316;2024-02-15T12:50:39;8.53;;;5.00;;
10659;SDS011;5378;53.206;13.316;2024-02-15T12:53:26;7.83;;;5.60;;
10659;SDS011;5378;53.206;13.316;2024-02-15T12:56:19;7.90;;;5.43;;
10659;SDS011;5378;53.206;13.316;2024-02-15T12:59:07;14.93;;;5.67;;
10659;SDS011;5378;53.206;13.316;2024-02-15T13:01:54;9.03;;;5.40;;
10659;SDS011;5378;53.206;13.316;2024-02-15T13:04:41;10.83;;;5.43;;
10659;SDS011;5378;53.206;13.316;2024-02-15T13:07:30;8.83;;;5.30;;
10659;SDS011;5378;53.206;13.316;2024-02-15T13:10:18;9.93;;;5.03;;
10659;SDS011;5378;53.206;13.316;2024-02-15T13:13:05;8.77;;;4.97;;
10659;SDS011;5378;53.206;13.316;2024-02-15T13:15:52;9.87;;;4.77;;
10659;SDS011;5378;53.206;13.316;2024-02-15T13:18:40;7.53;;;4.40;;
10659;SDS011;5378;53.206;13.316;2024-02-15T13:21:27;9.50;;;4.10;;
10659;SDS011;5378;53.206;13.316;2024-02-15T13:24:17;7.07;;;4.70;;
10659;SDS011;5378;53.206;13.316;2024-02-15T13:27:04;11.47;;;4.90;;
10659;SDS011;5378;53.206;13.316;2024-02-15T13:29:51;21.93;;;7.90;;
10659;SDS011;5378;53.206;13.316;2024-02-15T13:32:40;30.27;;;12.60;;
10659;SDS011;5378;53.206;13.316;2024-02-15T13:35:27;35.77;;;14.07;;
10659;SDS011;5378;53.206;13.316;2024-02-15T13:38:15;24.23;;;9.40;;
10659;SDS011;5378;53.206;13.316;2024-02-15T13:41:09;13.43;;;6.90;;
10659;SDS011;5378;53.206;13.316;2024-02-15T13:43:56;12.30;;;5.73;;
10659;SDS011;5378;53.206;13.316;2024-02-15T13:46:45;13.17;;;6.17;;
10659;SDS011;5378;53.206;13.316;2024-02-15T13:49:35;9.13;;;5.23;;
10659;SDS011;5378;53.206;13.316;2024-02-15T13:52:22;10.23;;;6.17;;
10659;SDS011;5378;53.206;13.316;2024-02-15T13:55:09;8.60;;;5.03;;
10659;SDS011;5378;53.206;13.316;2024-02-15T13:57:59;9.03;;;5.20;;
10659;SDS011;5378;53.206;13.316;2024-02-15T14:00:47;6.57;;;4.13;;
10659;SDS011;5378;53.206;13.316;2024-02-15T14:03:34;7.40;;;4.20;;
10659;SDS011;5378;53.206;13.316;2024-02-15T14:06:21;6.13;;;4.00;;
10659;SDS011;5378;53.206;13.316;2024-02-15T14:09:09;11.33;;;5.03;;
10659;SDS011;5378;53.206;13.316;2024-02-15T14:11:57;11.00;;;5.00;;
10659;SDS011;5378;53.206;13.316;2024-02-15T14:14:45;7.60;;;4.30;;
10659;SDS011;5378;53.206;13.316;2024-02-15T14:17:32;8.53;;;4.90;;
10659;SDS011;5378;53.206;13.316;2024-02-15T14:20:20;12.50;;;5.50;;
10659;SDS011;5378;53.206;13.316;2024-02-15T14:23:07;7.40;;;4.57;;
10659;SDS011;5378;53.206;13.316;2024-02-15T14:25:59;8.80;;;5.27;;
10659;SDS011;5378;53.206;13.316;2024-02-15T14:28:47;11.33;;;5.20;;
10659;SDS011;5378;53.206;13.316;2024-02-15T14:31:36;9.30;;;5.07;;
10659;SDS011;5378;53.206;13.316;2024-02-15T14:34:41;11.77;;;4.07;;
10659;SDS011;5378;53.206;13.316;2024-02-15T14:37:28;9.57;;;4.53;;
10659;SDS011;5378;53.206;13.316;2024-02-15T14:40:15;8.67;;;4.33;;
10659;SDS011;5378;53.206;13.316;2024-02-15T14:43:03;5.03;;;3.47;;
10659;SDS011;5378;53.206;13.316;2024-02-15T14:45:51;9.63;;;4.30;;
10659;SDS011;5378;53.206;13.316;2024-02-15T14:48:41;16.03;;;5.33;;
10659;SDS011;5378;53.206;13.316;2024-02-15T14:51:29;6.90;;;4.03;;
10659;SDS011;5378;53.206;13.316;2024-02-15T14:54:18;7.07;;;4.47;;
10659;SDS011;5378;53.206;13.316;2024-02-15T14:57:07;9.07;;;4.90;;
10659;SDS011;5378;53.206;13.316;2024-02-15T14:59:54;6.07;;;4.00;;
10659;SDS011;5378;53.206;13.316;2024-02-15T15:02:41;7.07;;;4.43;;
10659;SDS011;5378;53.206;13.316;2024-02-15T15:05:30;7.73;;;4.27;;
10659;SDS011;5378;53.206;13.316;2024-02-15T15:08:35;7.93;;;3.83;;
10659;SDS011;5378;53.206;13.316;2024-02-15T15:11:42;5.97;;;3.70;;
10659;SDS011;5378;53.206;13.316;2024-02-15T15:14:47;7.27;;;4.17;;
10659;SDS011;5378;53.206;13.316;2024-02-15T15:17:34;5.90;;;4.40;;
10659;SDS011;5378;53.206;13.316;2024-02-15T15:20:21;5.57;;;3.37;;
10659;SDS011;5378;53.206;13.316;2024-02-15T15:23:11;14.40;;;5.57;;
10659;SDS011;5378;53.206;13.316;2024-02-15T15:25:58;27.43;;;10.83;;
10659;SDS011;5378;53.206;13.316;2024-02-15T15:28:45;15.73;;;7.80;;
10659;SDS011;5378;53.206;13.316;2024-02-15T15:31:33;9.80;;;5.47;;
10659;SDS011;5378;53.206;13.316;2024-02-15T15:34:20;13.50;;;6.30;;
10659;SDS011;5378;53.206;13.316;2024-02-15T15:37:07;9.83;;;5.47;;
10659;SDS011;5378;53.206;13.316;2024-02-15T15:39:58;10.70;;;6.27;;
10659;SDS011;5378;53.206;13.316;2024-02-15T15:42:46;11.10;;;5.73;;
10659;SDS011;5378;53.206;13.316;2024-02-15T15:45:33;11.10;;;5.40;;
10659;SDS011;5378;53.206;13.316;2024-02-15T15:48:21;12.63;;;6.43;;
10659;SDS011;5378;53.206;13.316;2024-02-15T15:51:08;14.73;;;6.57;;
10659;SDS011;5378;53.206;13.316;2024-02-15T15:53:56;11.80;;;6.20;;
10659;SDS011;5378;53.206;13.316;2024-02-15T15:56:45;14.30;;;5.70;;
10659;SDS011;5378;53.206;13.316;2024-02-15T15:59:32;13.07;;;6.07;;
10659;SDS011;5378;53.206;13.316;2024-02-15T16:02:21;10.30;;;5.53;;
10659;SDS011;5378;53.206;13.316;2024-02-15T16:05:08;8.50;;;5.90;;
10659;SDS011;5378;53.206;13.316;2024-02-15T16:07:57;16.13;;;7.30;;
10659;SDS011;5378;53.206;13.316;2024-02-15T16:10:45;10.10;;;5.63;;
10659;SDS011;5378;53.206;13.316;2024-02-15T16:13:33;11.20;;;5.47;;
10659;SDS011;5378;53.206;13.316;2024-02-15T16:16:20;9.93;;;5.90;;
10659;SDS011;5378;53.206;13.316;2024-02-15T16:19:07;19.50;;;8.10;;
10659;SDS011;5378;53.206;13.316;2024-02-15T16:21:54;11.83;;;6.80;;
10659;SDS011;5378;53.206;13.316;2024-02-15T16:24:41;18.10;;;9.33;;
10659;SDS011;5378;53.206;13.316;2024-02-15T16:27:29;11.73;;;7.20;;
10659;SDS011;5378;53.206;13.316;2024-02-15T16:30:18;10.60;;;5.90;;
10659;SDS011;5378;53.206;13.316;2024-02-15T16:33:05;13.20;;;7.23;;
10659;SDS011;5378;53.206;13.316;2024-02-15T16:35:52;15.70;;;8.60;;
10659;SDS011;5378;53.206;13.316;2024-02-15T16:38:39;13.93;;;7.80;;
10659;SDS011;5378;53.206;13.316;2024-02-15T16:41:27;14.23;;;7.07;;
10659;SDS011;5378;53.206;13.316;2024-02-15T16:44:15;12.20;;;6.80;;
10659;SDS011;5378;53.206;13.316;2024-02-15T16:47:04;13.93;;;7.07;;